createdAt,value
2022-08-02T00:04:31.481Z,42.55
2022-08-02T00:09:53.226Z,42.93
2022-08-02T00:15:16.288Z,42.65
2022-08-02T00:20:38.213Z,43.08
2022-08-02T00:25:59.982Z,42.79
2022-08-02T00:31:21.796Z,42.86
2022-08-02T00:36:43.586Z,42.72
2022-08-02T00:42:05.552Z,42.83
2022-08-02T00:47:27.261Z,42.61
2022-08-02T00:52:48.934Z,42.77
2022-08-02T00:58:10.683Z,42.85
2022-08-02T01:03:32.360Z,42.78
2022-08-02T01:08:54.033Z,42.57
2022-08-02T01:14:16.077Z,42.48
2022-08-02T01:19:51.579Z,42.76
2022-08-02T01:25:41.235Z,42.78
2022-08-02T01:31:41.442Z,42.80
2022-08-02T01:37:21.820Z,42.60
2022-08-02T01:42:48.567Z,42.88
2022-08-02T01:48:11.593Z,42.77
2022-08-02T01:53:35.403Z,42.99
2022-08-02T01:58:57.412Z,42.95
2022-08-02T02:04:22.949Z,42.88
2022-08-02T02:09:50.239Z,42.80
2022-08-02T02:15:13.679Z,42.77
2022-08-02T02:20:36.710Z,42.63
2022-08-02T02:25:59.517Z,42.95
2022-08-02T02:31:26.870Z,42.88
2022-08-02T02:36:52.166Z,42.88
2022-08-02T02:42:15.251Z,42.81
2022-08-02T02:47:40.972Z,42.78
2022-08-02T02:53:04.229Z,42.79
2022-08-02T02:58:29.025Z,42.81
2022-08-02T03:03:52.114Z,42.72
2022-08-02T03:09:13.970Z,42.60
2022-08-02T03:14:40.286Z,42.88
2022-08-02T03:20:01.963Z,42.81
2022-08-02T03:25:23.669Z,42.91
2022-08-02T03:30:45.348Z,42.76
2022-08-02T03:36:12.473Z,42.90
2022-08-02T03:41:37.055Z,42.99
2022-08-02T03:46:59.103Z,42.60
2022-08-02T03:52:20.918Z,42.86
2022-08-02T03:57:43.105Z,43.03
2022-08-02T04:03:04.860Z,42.84
2022-08-02T04:08:35.797Z,43.15
2022-08-02T04:14:05.604Z,42.90
2022-08-02T04:19:32.832Z,42.69
2022-08-02T04:25:03.278Z,42.75
2022-08-02T04:30:26.170Z,42.66
2022-08-02T04:35:48.005Z,43.11
2022-08-02T04:41:09.899Z,42.82
2022-08-02T04:46:32.233Z,43.00
2022-08-02T04:51:53.943Z,43.18
2022-08-02T04:57:34.047Z,42.85
2022-08-02T05:02:57.140Z,43.10
2022-08-02T05:08:18.910Z,42.83
2022-08-02T05:13:57.906Z,42.79
2022-08-02T05:19:20.777Z,43.05
2022-08-02T05:24:42.493Z,43.08
2022-08-02T05:30:08.415Z,42.87
2022-08-02T05:35:30.182Z,42.96
2022-08-02T05:40:55.047Z,42.80
2022-08-02T05:46:17.021Z,42.84
2022-08-02T05:52:04.446Z,43.03
2022-08-02T05:57:47.290Z,42.40
2022-08-02T06:03:37.178Z,42.33
2022-08-02T06:09:03.536Z,42.58
2022-08-02T06:14:25.416Z,42.58
2022-08-02T06:19:58.383Z,42.97
2022-08-02T06:25:50.145Z,42.64
2022-08-02T06:31:06.229Z,42.64
2022-08-02T06:36:36.552Z,42.30
2022-08-02T06:42:03.069Z,42.21
2022-08-02T06:47:24.821Z,42.56
2022-08-02T06:52:46.594Z,42.71
2022-08-02T06:58:08.290Z,42.66
2022-08-02T07:03:31.242Z,42.60
2022-08-02T07:09:18.243Z,42.34
2022-08-02T07:14:34.673Z,42.40
2022-08-02T07:19:58.653Z,42.27
2022-08-02T07:25:20.454Z,42.32
2022-08-02T07:30:42.881Z,42.61
2022-08-02T07:36:05.756Z,42.43
2022-08-02T07:41:30.729Z,42.40
2022-08-02T07:46:52.453Z,42.54
2022-08-02T07:52:14.504Z,42.77
2022-08-02T07:57:37.249Z,42.51
2022-08-02T08:02:59.784Z,42.55
2022-08-02T08:08:21.649Z,42.48
2022-08-02T08:13:43.334Z,42.43
2022-08-02T08:19:05.132Z,42.05
2022-08-02T08:24:27.701Z,42.42
2022-08-02T08:29:49.888Z,42.21
2022-08-02T08:35:12.361Z,42.22
2022-08-02T08:40:34.314Z,42.25
2022-08-02T08:45:56.503Z,42.12
2022-08-02T08:51:21.478Z,42.29
2022-08-02T08:56:44.345Z,42.10
2022-08-02T09:02:17.883Z,42.41
2022-08-02T09:07:50.065Z,41.68
2022-08-02T09:13:38.706Z,41.75
2022-08-02T09:19:26.435Z,41.54
2022-08-02T09:24:50.223Z,41.42
2022-08-02T09:30:15.476Z,41.65
2022-08-02T09:36:06.770Z,41.67
2022-08-02T09:41:25.392Z,41.59
2022-08-02T09:46:47.091Z,41.10
2022-08-02T09:52:09.068Z,41.33
2022-08-02T09:57:33.690Z,40.82
2022-08-02T10:03:21.490Z,40.66
2022-08-02T10:08:44.645Z,40.83
2022-08-02T10:14:09.460Z,40.63
2022-08-02T10:20:01.143Z,40.73
2022-08-02T10:25:13.904Z,40.73
2022-08-02T10:30:41.007Z,40.98
2022-08-02T10:36:07.633Z,40.83
2022-08-02T10:41:48.185Z,41.16
2022-08-02T10:47:25.486Z,41.31
2022-08-02T10:52:47.205Z,41.08
2022-08-02T10:58:19.116Z,41.39
2022-08-02T11:03:41.780Z,41.48
2022-08-02T11:09:32.848Z,41.48
2022-08-02T11:15:00.700Z,41.06
2022-08-02T11:20:23.935Z,41.71
2022-08-02T11:26:03.364Z,41.16
2022-08-02T11:31:25.854Z,41.62
2022-08-02T11:36:50.552Z,41.49
2022-08-02T11:42:15.177Z,41.18
2022-08-02T11:47:54.294Z,41.33
2022-08-02T11:53:16.619Z,41.40
2022-08-02T11:58:38.946Z,41.26
2022-08-02T12:04:04.528Z,41.39
2022-08-02T12:09:28.288Z,41.13
2022-08-02T12:14:50.493Z,41.13
2022-08-02T12:20:13.478Z,41.18
2022-08-02T12:25:35.750Z,40.95
2022-08-02T12:31:01.117Z,40.90
2022-08-02T12:36:27.165Z,40.14
2022-08-02T12:41:57.796Z,39.67
2022-08-02T12:47:21.792Z,39.38
2022-08-02T12:52:47.162Z,39.80
2022-08-02T12:58:09.051Z,39.51
2022-08-02T13:04:07.690Z,39.71
2022-08-02T13:09:17.417Z,39.67
2022-08-02T13:14:41.966Z,39.57
2022-08-02T13:20:05.589Z,39.98
2022-08-02T13:25:31.786Z,39.81
2022-08-02T13:30:53.963Z,39.80
2022-08-02T13:36:15.702Z,39.90
2022-08-02T13:41:37.657Z,40.19
2022-08-02T13:46:59.476Z,40.05
2022-08-02T13:52:21.320Z,40.28
2022-08-02T13:57:43.104Z,40.57
2022-08-02T14:03:15.196Z,40.10
2022-08-02T14:08:38.277Z,40.32
2022-08-02T14:14:00.021Z,40.55
2022-08-02T14:19:24.310Z,40.69
2022-08-02T14:24:46.062Z,40.59
2022-08-02T14:30:08.815Z,40.75
2022-08-02T14:35:31.779Z,40.82
2022-08-02T14:40:53.489Z,40.79
2022-08-02T14:46:15.201Z,40.73
2022-08-02T14:51:38.338Z,40.91
2022-08-02T14:57:01.840Z,40.71
2022-08-02T15:02:23.575Z,41.01
2022-08-02T15:07:49.378Z,40.62
2022-08-02T15:13:11.555Z,40.98
2022-08-02T15:18:33.292Z,40.71
2022-08-02T15:23:54.959Z,41.03
2022-08-02T15:29:18.071Z,41.10
2022-08-02T15:34:40.603Z,41.16
2022-08-02T15:40:02.381Z,40.98
2022-08-02T15:45:25.601Z,41.22
2022-08-02T15:50:47.371Z,40.82
2022-08-02T15:56:12.907Z,41.15
2022-08-02T16:01:37.358Z,41.20
2022-08-02T16:07:01.616Z,41.30
2022-08-02T16:12:32.295Z,41.31
2022-08-02T16:17:54.850Z,41.36
2022-08-02T16:23:16.562Z,41.19
2022-08-02T16:28:38.328Z,41.38
2022-08-02T16:34:00.293Z,41.47
2022-08-02T16:39:22.002Z,41.20
2022-08-02T16:44:43.767Z,42.05
2022-08-02T16:50:15.667Z,42.07
2022-08-02T16:55:51.498Z,42.44
2022-08-02T17:01:13.843Z,42.96
2022-08-02T17:06:35.651Z,43.17
2022-08-02T17:11:58.148Z,43.01
2022-08-02T17:17:22.094Z,43.06
2022-08-02T17:22:55.945Z,43.20
2022-08-02T17:28:22.346Z,43.40
2022-08-02T17:33:53.810Z,43.41
2022-08-02T17:39:15.534Z,43.36
2022-08-02T17:44:38.545Z,43.36
2022-08-02T17:50:00.646Z,43.20
2022-08-02T17:55:22.633Z,43.20
2022-08-02T18:00:44.941Z,43.01
2022-08-02T18:06:07.180Z,43.14
2022-08-02T18:11:52.457Z,43.15
2022-08-02T18:17:16.020Z,43.13
2022-08-02T18:22:39.608Z,43.10
2022-08-02T18:28:05.212Z,43.25
2022-08-02T18:33:59.779Z,43.29
2022-08-02T18:39:08.716Z,42.98
2022-08-02T18:44:31.268Z,43.47
2022-08-02T18:49:56.327Z,43.46
2022-08-02T18:55:59.563Z,43.28
2022-08-02T19:00:59.765Z,43.23
2022-08-02T19:06:27.612Z,43.12
2022-08-02T19:11:51.071Z,43.27
2022-08-02T19:17:53.988Z,43.38
2022-08-02T19:22:54.709Z,43.40
2022-08-02T19:28:16.408Z,43.41
2022-08-02T19:34:04.600Z,43.45
2022-08-02T19:39:30.018Z,43.48
2022-08-02T19:44:52.483Z,43.65
2022-08-02T19:50:18.934Z,43.64
2022-08-02T19:56:01.319Z,43.79
2022-08-02T20:01:37.341Z,43.95
2022-08-02T20:07:01.317Z,43.95
2022-08-02T20:12:25.464Z,43.90
2022-08-02T20:17:49.070Z,43.99
2022-08-02T20:23:34.057Z,43.96
2022-08-02T20:28:56.052Z,44.16
2022-08-02T20:34:26.247Z,44.56
2022-08-02T20:39:48.299Z,44.32
2022-08-02T20:45:12.034Z,44.60
2022-08-02T20:50:49.216Z,44.46
2022-08-02T20:56:12.720Z,44.70
2022-08-02T21:01:37.137Z,44.38
2022-08-02T21:06:59.306Z,44.45
2022-08-02T21:12:29.768Z,43.89
2022-08-02T21:18:13.412Z,44.59
2022-08-02T21:23:36.215Z,44.30
2022-08-02T21:29:00.755Z,44.19
2022-08-02T21:34:27.170Z,43.88
2022-08-02T21:39:50.024Z,44.06
2022-08-02T21:45:17.280Z,44.01
2022-08-02T21:50:39.298Z,44.12
2022-08-02T21:56:02.769Z,44.35
2022-08-02T22:01:24.919Z,44.11
2022-08-02T22:06:51.490Z,44.03
2022-08-02T22:12:16.941Z,44.17
2022-08-02T22:17:51.574Z,44.13
2022-08-02T22:23:38.551Z,44.44
2022-08-02T22:28:59.690Z,44.11
2022-08-02T22:34:36.782Z,44.17
2022-08-02T22:40:08.413Z,43.93
2022-08-02T22:45:31.884Z,44.15
2022-08-02T22:50:59.557Z,43.76
2022-08-02T22:56:21.383Z,43.90
2022-08-02T23:01:43.851Z,44.10
2022-08-02T23:07:05.993Z,43.97
2022-08-02T23:12:27.713Z,44.06
2022-08-02T23:18:08.544Z,44.10
2022-08-02T23:23:30.335Z,43.91
2022-08-02T23:28:52.036Z,43.79
2022-08-02T23:34:13.745Z,44.03
2022-08-02T23:39:36.645Z,44.02
2022-08-02T23:44:58.380Z,43.88
2022-08-02T23:50:20.127Z,43.98
2022-08-02T23:55:41.897Z,44.04
